sensor_id;sensor_type;location;lat;lon;timestamp;pressure;altitude;pressure_sealevel;temperature;humidity
71109;BME280;59614;51.012;-1.648;2023-01-25T00:01:46;102847.03;;;-1.32;95.74
71109;BME280;59614;51.012;-1.648;2023-01-25T00:04:12;102846.94;;;-1.34;95.77
71109;BME280;59614;51.012;-1.648;2023-01-25T00:06:37;102844.25;;;-1.47;96.12
71109;BME280;59614;51.012;-1.648;2023-01-25T00:09:03;102832.06;;;-1.48;95.35
71109;BME280;59614;51.012;-1.648;2023-01-25T00:11:29;102843.41;;;-1.34;97.60
71109;BME280;59614;51.012;-1.648;2023-01-25T00:13:55;102842.75;;;-1.32;96.19
71109;BME280;59614;51.012;-1.648;2023-01-25T00:16:21;102848.41;;;-1.37;95.61
71109;BME280;59614;51.012;-1.648;2023-01-25T00:18:47;102844.78;;;-1.40;95.46
71109;BME280;59614;51.012;-1.648;2023-01-25T00:21:21;102844.66;;;-1.29;96.14
71109;BME280;59614;51.012;-1.648;2023-01-25T00:23:47;102844.09;;;-1.37;95.33
71109;BME280;59614;51.012;-1.648;2023-01-25T00:26:13;102843.22;;;-1.37;95.12
71109;BME280;59614;51.012;-1.648;2023-01-25T00:28:39;102842.09;;;-1.41;94.38
71109;BME280;59614;51.012;-1.648;2023-01-25T00:31:06;102834.44;;;-1.51;94.73
71109;BME280;59614;51.012;-1.648;2023-01-25T00:33:33;102836.59;;;-1.58;94.77
71109;BME280;59614;51.012;-1.648;2023-01-25T00:39:00;102828.94;;;-1.56;94.81
71109;BME280;59614;51.012;-1.648;2023-01-25T00:41:26;102834.44;;;-1.51;95.19
71109;BME280;59614;51.012;-1.648;2023-01-25T00:43:51;102838.41;;;-1.57;94.70
71109;BME280;59614;51.012;-1.648;2023-01-25T00:46:17;102834.22;;;-1.66;94.83
71109;BME280;59614;51.012;-1.648;2023-01-25T00:48:43;102841.44;;;-1.74;95.05
71109;BME280;59614;51.012;-1.648;2023-01-25T00:51:08;102842.13;;;-1.77;95.09
71109;BME280;59614;51.012;-1.648;2023-01-25T00:53:34;102842.59;;;-1.71;95.15
71109;BME280;59614;51.012;-1.648;2023-01-25T00:55:59;102840.09;;;-1.69;95.51
71109;BME280;59614;51.012;-1.648;2023-01-25T00:58:25;102843.47;;;-1.58;95.78
71109;BME280;59614;51.012;-1.648;2023-01-25T01:00:52;102851.16;;;-1.72;94.77
71109;BME280;59614;51.012;-1.648;2023-01-25T01:03:18;102840.00;;;-1.71;94.83
71109;BME280;59614;51.012;-1.648;2023-01-25T01:05:44;102835.16;;;-1.78;94.24
71109;BME280;59614;51.012;-1.648;2023-01-25T01:08:10;102834.13;;;-1.80;94.47
71109;BME280;59614;51.012;-1.648;2023-01-25T01:10:36;102832.34;;;-1.81;93.96
71109;BME280;59614;51.012;-1.648;2023-01-25T01:13:02;102832.34;;;-1.81;94.41
71109;BME280;59614;51.012;-1.648;2023-01-25T01:15:27;102832.13;;;-1.84;93.88
71109;BME280;59614;51.012;-1.648;2023-01-25T01:17:52;102835.16;;;-1.78;94.22
71109;BME280;59614;51.012;-1.648;2023-01-25T01:20:18;102821.75;;;-1.72;94.66
71109;BME280;59614;51.012;-1.648;2023-01-25T01:22:43;102816.56;;;-1.60;95.19
71109;BME280;59614;51.012;-1.648;2023-01-25T01:25:09;102826.94;;;-1.60;94.68
71109;BME280;59614;51.012;-1.648;2023-01-25T01:27:35;102818.97;;;-1.75;94.54
71109;BME280;59614;51.012;-1.648;2023-01-25T01:30:00;102814.66;;;-1.75;94.89
71109;BME280;59614;51.012;-1.648;2023-01-25T01:32:26;102816.69;;;-1.71;94.46
71109;BME280;59614;51.012;-1.648;2023-01-25T01:34:51;102819.06;;;-1.74;94.75
71109;BME280;59614;51.012;-1.648;2023-01-25T01:37:17;102812.84;;;-1.76;94.67
71109;BME280;59614;51.012;-1.648;2023-01-25T01:39:42;102806.34;;;-1.71;94.80
71109;BME280;59614;51.012;-1.648;2023-01-25T01:42:07;102817.34;;;-1.73;94.30
71109;BME280;59614;51.012;-1.648;2023-01-25T01:44:48;102816.81;;;-1.81;94.43
71109;BME280;59614;51.012;-1.648;2023-01-25T01:47:28;102817.47;;;-1.72;94.63
71109;BME280;59614;51.012;-1.648;2023-01-25T01:50:02;102819.16;;;-1.72;94.50
71109;BME280;59614;51.012;-1.648;2023-01-25T01:52:32;102822.00;;;-1.81;93.72
71109;BME280;59614;51.012;-1.648;2023-01-25T01:55:20;102821.19;;;-1.92;93.95
71109;BME280;59614;51.012;-1.648;2023-01-25T01:57:51;102823.66;;;-2.05;93.22
71109;BME280;59614;51.012;-1.648;2023-01-25T02:00:22;102814.00;;;-2.08;93.51
71109;BME280;59614;51.012;-1.648;2023-01-25T02:02:50;102823.44;;;-2.08;93.42
71109;BME280;59614;51.012;-1.648;2023-01-25T02:05:28;102825.81;;;-2.11;93.42
71109;BME280;59614;51.012;-1.648;2023-01-25T02:07:56;102824.34;;;-2.08;94.27
71109;BME280;59614;51.012;-1.648;2023-01-25T02:10:24;102822.09;;;-2.03;94.19
71109;BME280;59614;51.012;-1.648;2023-01-25T02:12:53;102825.91;;;-2.10;93.96
71109;BME280;59614;51.012;-1.648;2023-01-25T02:15:19;102822.44;;;-2.10;93.96
71109;BME280;59614;51.012;-1.648;2023-01-25T02:17:46;102835.25;;;-2.12;94.82
71109;BME280;59614;51.012;-1.648;2023-01-25T02:20:30;102828.59;;;-2.08;94.96
71109;BME280;59614;51.012;-1.648;2023-01-25T02:23:20;102830.31;;;-2.09;94.94
71109;BME280;59614;51.012;-1.648;2023-01-25T02:25:47;102832.13;;;-2.08;93.80
71109;BME280;59614;51.012;-1.648;2023-01-25T02:28:17;102837.38;;;-2.18;93.60
71109;BME280;59614;51.012;-1.648;2023-01-25T02:30:45;102831.75;;;-2.24;94.47
71109;BME280;59614;51.012;-1.648;2023-01-25T02:33:11;102830.19;;;-2.22;93.73
71109;BME280;59614;51.012;-1.648;2023-01-25T02:38:06;102836.59;;;-2.17;93.57
71109;BME280;59614;51.012;-1.648;2023-01-25T02:40:39;102844.13;;;-2.20;94.94
71109;BME280;59614;51.012;-1.648;2023-01-25T02:43:05;102838.06;;;-2.09;94.43
71109;BME280;59614;51.012;-1.648;2023-01-25T02:45:31;102842.38;;;-2.09;94.00
71109;BME280;59614;51.012;-1.648;2023-01-25T02:47:57;102832.56;;;-2.25;93.82
71109;BME280;59614;51.012;-1.648;2023-01-25T02:50:22;102830.75;;;-2.03;93.74
71109;BME280;59614;51.012;-1.648;2023-01-25T02:52:47;102833.88;;;-2.19;94.15
71109;BME280;59614;51.012;-1.648;2023-01-25T02:55:13;102833.56;;;-2.11;93.74
71109;BME280;59614;51.012;-1.648;2023-01-25T02:57:38;102828.94;;;-2.27;93.87
71109;BME280;59614;51.012;-1.648;2023-01-25T03:00:04;102836.25;;;-2.10;94.34
71109;BME280;59614;51.012;-1.648;2023-01-25T03:02:30;102832.00;;;-1.97;93.83
71109;BME280;59614;51.012;-1.648;2023-01-25T03:04:56;102834.03;;;-1.93;93.47
71109;BME280;59614;51.012;-1.648;2023-01-25T03:07:21;102832.88;;;-1.97;93.65
71109;BME280;59614;51.012;-1.648;2023-01-25T03:09:47;102822.78;;;-2.06;92.76
71109;BME280;59614;51.012;-1.648;2023-01-25T03:12:12;102821.41;;;-2.12;93.24
71109;BME280;59614;51.012;-1.648;2023-01-25T03:14:38;102824.59;;;-2.05;93.37
71109;BME280;59614;51.012;-1.648;2023-01-25T03:17:03;102814.00;;;-2.08;92.12
71109;BME280;59614;51.012;-1.648;2023-01-25T03:19:29;102810.06;;;-2.26;92.87
71109;BME280;59614;51.012;-1.648;2023-01-25T03:21:54;102808.56;;;-2.35;93.30
71109;BME280;59614;51.012;-1.648;2023-01-25T03:24:19;102811.16;;;-2.35;92.25
71109;BME280;59614;51.012;-1.648;2023-01-25T03:26:45;102810.81;;;-2.39;93.45
71109;BME280;59614;51.012;-1.648;2023-01-25T03:29:29;102803.97;;;-2.39;93.80
71109;BME280;59614;51.012;-1.648;2023-01-25T03:31:54;102805.53;;;-2.41;93.27
71109;BME280;59614;51.012;-1.648;2023-01-25T03:34:19;102807.88;;;-2.44;92.90
71109;BME280;59614;51.012;-1.648;2023-01-25T03:36:45;102809.19;;;-2.61;93.50
71109;BME280;59614;51.012;-1.648;2023-01-25T03:39:10;102803.16;;;-2.84;93.21
71109;BME280;59614;51.012;-1.648;2023-01-25T03:41:36;102802.00;;;-2.65;94.12
71109;BME280;59614;51.012;-1.648;2023-01-25T03:44:01;102802.00;;;-2.53;93.28
71109;BME280;59614;51.012;-1.648;2023-01-25T03:46:26;102798.97;;;-2.59;93.25
71109;BME280;59614;51.012;-1.648;2023-01-25T03:48:52;102793.66;;;-2.61;93.64
71109;BME280;59614;51.012;-1.648;2023-01-25T03:51:17;102795.16;;;-2.53;92.61
71109;BME280;59614;51.012;-1.648;2023-01-25T03:53:42;102786.59;;;-2.52;92.96
71109;BME280;59614;51.012;-1.648;2023-01-25T03:56:09;102790.78;;;-2.42;92.85
71109;BME280;59614;51.012;-1.648;2023-01-25T03:58:38;102778.66;;;-2.43;92.47
71109;BME280;59614;51.012;-1.648;2023-01-25T04:01:05;102782.59;;;-2.48;91.82
71109;BME280;59614;51.012;-1.648;2023-01-25T04:03:31;102778.66;;;-2.43;92.28
71109;BME280;59614;51.012;-1.648;2023-01-25T04:05:57;102780.69;;;-2.39;93.44
71109;BME280;59614;51.012;-1.648;2023-01-25T04:08:23;102782.03;;;-2.32;93.01
71109;BME280;59614;51.012;-1.648;2023-01-25T04:10:53;102785.06;;;-2.38;93.21
71109;BME280;59614;51.012;-1.648;2023-01-25T04:13:20;102782.16;;;-2.30;93.34
71109;BME280;59614;51.012;-1.648;2023-01-25T04:15:46;102779.09;;;-2.49;92.92
71109;BME280;59614;51.012;-1.648;2023-01-25T04:18:12;102793.25;;;-2.55;93.27
71109;BME280;59614;51.012;-1.648;2023-01-25T04:20:37;102783.56;;;-2.46;93.30
71109;BME280;59614;51.012;-1.648;2023-01-25T04:23:02;102790.56;;;-2.57;92.96
71109;BME280;59614;51.012;-1.648;2023-01-25T04:25:28;102775.91;;;-2.56;92.69
71109;BME280;59614;51.012;-1.648;2023-01-25T04:27:53;102775.34;;;-2.64;92.51
71109;BME280;59614;51.012;-1.648;2023-01-25T04:30:19;102786.41;;;-2.55;92.70
71109;BME280;59614;51.012;-1.648;2023-01-25T04:32:45;102775.91;;;-2.56;92.23
71109;BME280;59614;51.012;-1.648;2023-01-25T04:35:10;102785.63;;;-2.54;92.75
71109;BME280;59614;51.012;-1.648;2023-01-25T04:37:36;102781.31;;;-2.53;92.91
71109;BME280;59614;51.012;-1.648;2023-01-25T04:40:02;102773.66;;;-2.64;92.09
71109;BME280;59614;51.012;-1.648;2023-01-25T04:42:28;102778.41;;;-2.58;91.88
71109;BME280;59614;51.012;-1.648;2023-01-25T04:44:53;102773.22;;;-2.58;91.97
71109;BME280;59614;51.012;-1.648;2023-01-25T04:47:19;102778.94;;;-2.62;92.13
71109;BME280;59614;51.012;-1.648;2023-01-25T04:49:44;102780.75;;;-2.95;92.16
71109;BME280;59614;51.012;-1.648;2023-01-25T04:52:10;102780.56;;;-2.86;92.72
71109;BME280;59614;51.012;-1.648;2023-01-25T04:54:35;102778.53;;;-2.90;93.29
71109;BME280;59614;51.012;-1.648;2023-01-25T04:57:00;102785.31;;;-2.81;92.93
71109;BME280;59614;51.012;-1.648;2023-01-25T04:59:26;102788.56;;;-2.83;93.62
71109;BME280;59614;51.012;-1.648;2023-01-25T05:01:51;102790.75;;;-3.00;94.76
71109;BME280;59614;51.012;-1.648;2023-01-25T05:04:17;102792.47;;;-2.88;94.46
71109;BME280;59614;51.012;-1.648;2023-01-25T05:06:42;102798.03;;;-2.72;93.76
71109;BME280;59614;51.012;-1.648;2023-01-25T05:09:08;102802.09;;;-2.98;93.65
71109;BME280;59614;51.012;-1.648;2023-01-25T05:11:34;102813.03;;;-3.12;95.27
71109;BME280;59614;51.012;-1.648;2023-01-25T05:13:59;102813.22;;;-2.99;96.10
71109;BME280;59614;51.012;-1.648;2023-01-25T05:16:25;102819.09;;;-2.89;96.39
71109;BME280;59614;51.012;-1.648;2023-01-25T05:18:50;102805.47;;;-2.99;97.59
71109;BME280;59614;51.012;-1.648;2023-01-25T05:21:15;102816.75;;;-2.86;97.13
71109;BME280;59614;51.012;-1.648;2023-01-25T05:23:59;102811.47;;;-2.88;96.15
71109;BME280;59614;51.012;-1.648;2023-01-25T05:26:26;102806.00;;;-2.81;96.71
71109;BME280;59614;51.012;-1.648;2023-01-25T05:29:10;102798.25;;;-2.81;96.84
71109;BME280;59614;51.012;-1.648;2023-01-25T05:31:35;102804.16;;;-2.93;97.54
71109;BME280;59614;51.012;-1.648;2023-01-25T05:34:01;102800.63;;;-2.72;98.34
71109;BME280;59614;51.012;-1.648;2023-01-25T05:36:26;102807.19;;;-2.53;97.82
71109;BME280;59614;51.012;-1.648;2023-01-25T05:38:51;102798.97;;;-2.59;96.95
71109;BME280;59614;51.012;-1.648;2023-01-25T05:41:17;102796.75;;;-2.43;97.32
71109;BME280;59614;51.012;-1.648;2023-01-25T05:43:43;102799.38;;;-2.19;97.08
71109;BME280;59614;51.012;-1.648;2023-01-25T05:46:08;102793.16;;;-2.21;96.05
71109;BME280;59614;51.012;-1.648;2023-01-25T05:48:33;102787.22;;;-2.20;96.13
71109;BME280;59614;51.012;-1.648;2023-01-25T05:50:59;102786.09;;;-2.12;96.77
71109;BME280;59614;51.012;-1.648;2023-01-25T05:53:25;102792.84;;;-2.14;96.96
71109;BME280;59614;51.012;-1.648;2023-01-25T05:55:51;102787.88;;;-2.11;97.43
71109;BME280;59614;51.012;-1.648;2023-01-25T05:58:16;102784.06;;;-1.92;96.76
71109;BME280;59614;51.012;-1.648;2023-01-25T06:00:42;102784.41;;;-1.99;97.43
71109;BME280;59614;51.012;-1.648;2023-01-25T06:03:07;102786.66;;;-1.80;97.96
71109;BME280;59614;51.012;-1.648;2023-01-25T06:05:32;102778.19;;;-1.78;97.47
71109;BME280;59614;51.012;-1.648;2023-01-25T06:07:58;102765.09;;;-1.67;97.41
71109;BME280;59614;51.012;-1.648;2023-01-25T06:10:24;102760.44;;;-2.09;97.62
71109;BME280;59614;51.012;-1.648;2023-01-25T06:12:49;102766.63;;;-1.83;98.61
71109;BME280;59614;51.012;-1.648;2023-01-25T06:15:15;102765.09;;;-1.67;98.68
71109;BME280;59614;51.012;-1.648;2023-01-25T06:17:40;102756.22;;;-1.71;98.00
71109;BME280;59614;51.012;-1.648;2023-01-25T06:20:06;102759.88;;;-2.05;99.84
71109;BME280;59614;51.012;-1.648;2023-01-25T06:22:32;102761.31;;;-1.84;100.00
71109;BME280;59614;51.012;-1.648;2023-01-25T06:24:57;102759.06;;;-1.80;99.75
71109;BME280;59614;51.012;-1.648;2023-01-25T06:27:23;102760.38;;;-1.61;100.00
71109;BME280;59614;51.012;-1.648;2023-01-25T06:29:48;102758.94;;;-1.32;99.13
71109;BME280;59614;51.012;-1.648;2023-01-25T06:32:14;102746.94;;;-1.44;98.57
71109;BME280;59614;51.012;-1.648;2023-01-25T06:34:39;102751.09;;;-1.46;98.78
71109;BME280;59614;51.012;-1.648;2023-01-25T06:37:05;102752.97;;;-1.31;98.11
71109;BME280;59614;51.012;-1.648;2023-01-25T06:39:30;102739.31;;;-1.29;98.13
71109;BME280;59614;51.012;-1.648;2023-01-25T06:41:56;102741.88;;;-1.17;97.81
71109;BME280;59614;51.012;-1.648;2023-01-25T06:44:21;102742.97;;;-1.13;97.27
71109;BME280;59614;51.012;-1.648;2023-01-25T06:46:46;102747.69;;;-1.07;96.83
71109;BME280;59614;51.012;-1.648;2023-01-25T06:49:12;102746.91;;;-1.06;96.78
71109;BME280;59614;51.012;-1.648;2023-01-25T06:51:37;102747.78;;;-1.06;97.03
71109;BME280;59614;51.012;-1.648;2023-01-25T06:54:03;102735.25;;;-1.00;97.62
71109;BME280;59614;51.012;-1.648;2023-01-25T06:56:28;102740.63;;;-1.10;97.51
71109;BME280;59614;51.012;-1.648;2023-01-25T06:58:54;102744.22;;;-1.08;97.51
71109;BME280;59614;51.012;-1.648;2023-01-25T07:01:21;102742.88;;;-1.15;98.46
71109;BME280;59614;51.012;-1.648;2023-01-25T07:03:53;102745.63;;;-1.00;98.09
71109;BME280;59614;51.012;-1.648;2023-01-25T07:06:19;102743.72;;;-1.02;97.78
71109;BME280;59614;51.012;-1.648;2023-01-25T07:08:45;102747.16;;;-1.15;97.64
71109;BME280;59614;51.012;-1.648;2023-01-25T07:11:12;102748.09;;;-1.01;97.64
71109;BME280;59614;51.012;-1.648;2023-01-25T07:13:39;102745.03;;;-1.21;98.03
71109;BME280;59614;51.012;-1.648;2023-01-25T07:16:09;102744.03;;;-1.23;98.85
71109;BME280;59614;51.012;-1.648;2023-01-25T07:18:35;102744.41;;;-1.30;98.61
71109;BME280;59614;51.012;-1.648;2023-01-25T07:21:07;102740.47;;;-1.25;99.66
71109;BME280;59614;51.012;-1.648;2023-01-25T07:23:33;102741.88;;;-1.42;99.73
71109;BME280;59614;51.012;-1.648;2023-01-25T07:25:59;102748.31;;;-1.49;100.00
71109;BME280;59614;51.012;-1.648;2023-01-25T07:28:25;102733.66;;;-1.23;100.00
71109;BME280;59614;51.012;-1.648;2023-01-25T07:30:51;102742.66;;;-1.18;100.00
71109;BME280;59614;51.012;-1.648;2023-01-25T07:33:17;102747.63;;;-1.21;100.00
71109;BME280;59614;51.012;-1.648;2023-01-25T07:35:42;102749.69;;;-1.29;100.00
71109;BME280;59614;51.012;-1.648;2023-01-25T07:38:07;102740.16;;;-1.42;100.00
71109;BME280;59614;51.012;-1.648;2023-01-25T07:40:33;102736.63;;;-1.30;100.00
71109;BME280;59614;51.012;-1.648;2023-01-25T07:42:58;102743.84;;;-1.26;100.00
71109;BME280;59614;51.012;-1.648;2023-01-25T07:45:24;102723.97;;;-1.14;100.00
71109;BME280;59614;51.012;-1.648;2023-01-25T07:47:55;102725.91;;;-0.98;100.00
71109;BME280;59614;51.012;-1.648;2023-01-25T07:50:20;102724.31;;;-1.21;100.00
71109;BME280;59614;51.012;-1.648;2023-01-25T07:52:46;102727.72;;;-0.83;100.00
71109;BME280;59614;51.012;-1.648;2023-01-25T07:55:11;102724.53;;;-0.79;100.00
71109;BME280;59614;51.012;-1.648;2023-01-25T07:57:37;102722.06;;;-0.64;100.00
71109;BME280;59614;51.012;-1.648;2023-01-25T08:00:03;102716.66;;;-0.81;99.64
71109;BME280;59614;51.012;-1.648;2023-01-25T08:02:31;102715.50;;;-0.59;100.00
71109;BME280;59614;51.012;-1.648;2023-01-25T08:04:57;102715.50;;;-0.59;99.36
71109;BME280;59614;51.012;-1.648;2023-01-25T08:07:22;102701.53;;;-0.61;99.61
71109;BME280;59614;51.012;-1.648;2023-01-25T08:09:48;102702.94;;;-0.53;99.59
71109;BME280;59614;51.012;-1.648;2023-01-25T08:12:13;102694.16;;;-0.68;99.61
71109;BME280;59614;51.012;-1.648;2023-01-25T08:14:39;102694.94;;;-0.69;100.00
71109;BME280;59614;51.012;-1.648;2023-01-25T08:17:04;102694.34;;;-0.65;99.81
71109;BME280;59614;51.012;-1.648;2023-01-25T08:19:29;102702.91;;;-0.66;100.00
71109;BME280;59614;51.012;-1.648;2023-01-25T08:21:55;102693.47;;;-0.52;100.00
71109;BME280;59614;51.012;-1.648;2023-01-25T08:24:21;102698.53;;;-0.54;100.00
71109;BME280;59614;51.012;-1.648;2023-01-25T08:26:46;102686.97;;;-0.45;100.00
71109;BME280;59614;51.012;-1.648;2023-01-25T08:29:12;102697.97;;;-0.36;99.83
71109;BME280;59614;51.012;-1.648;2023-01-25T08:31:39;102684.97;;;-0.36;99.64
71109;BME280;59614;51.012;-1.648;2023-01-25T08:34:06;102677.19;;;-0.23;99.52
71109;BME280;59614;51.012;-1.648;2023-01-25T08:36:32;102680.78;;;-0.34;99.34
71109;BME280;59614;51.012;-1.648;2023-01-25T08:39:00;102672.97;;;-0.21;99.71
71109;BME280;59614;51.012;-1.648;2023-01-25T08:41:27;102670.38;;;-0.21;99.68
71109;BME280;59614;51.012;-1.648;2023-01-25T08:43:54;102674.91;;;-0.18;99.94
71109;BME280;59614;51.012;-1.648;2023-01-25T08:46:21;102682.78;;;-0.30;99.97
71109;BME280;59614;51.012;-1.648;2023-01-25T08:48:47;102681.88;;;-0.30;100.00
71109;BME280;59614;51.012;-1.648;2023-01-25T08:51:16;102678.28;;;-0.33;100.00
71109;BME280;59614;51.012;-1.648;2023-01-25T08:53:42;102665.81;;;-0.11;100.00
71109;BME280;59614;51.012;-1.648;2023-01-25T08:56:10;102666.66;;;0.03;100.00
71109;BME280;59614;51.012;-1.648;2023-01-25T08:58:38;102661.13;;;0.11;100.00
71109;BME280;59614;51.012;-1.648;2023-01-25T09:01:06;102667.88;;;-0.06;100.00
71109;BME280;59614;51.012;-1.648;2023-01-25T09:03:42;102666.53;;;0.14;100.00
71109;BME280;59614;51.012;-1.648;2023-01-25T09:06:08;102660.25;;;0.39;99.85
71109;BME280;59614;51.012;-1.648;2023-01-25T09:08:35;102657.22;;;0.18;99.45
71109;BME280;59614;51.012;-1.648;2023-01-25T09:11:10;102649.44;;;0.46;99.75
71109;BME280;59614;51.012;-1.648;2023-01-25T09:13:36;102646.91;;;0.33;99.49
71109;BME280;59614;51.012;-1.648;2023-01-25T09:16:06;102633.91;;;0.33;100.00
71109;BME280;59614;51.012;-1.648;2023-01-25T09:18:35;102639.78;;;0.59;100.00
71109;BME280;59614;51.012;-1.648;2023-01-25T09:21:05;102624.66;;;0.67;99.79
71109;BME280;59614;51.012;-1.648;2023-01-25T09:23:31;102623.13;;;0.85;99.45
71109;BME280;59614;51.012;-1.648;2023-01-25T09:26:00;102616.97;;;0.83;98.94
71109;BME280;59614;51.012;-1.648;2023-01-25T09:28:26;102612.84;;;0.87;99.03
71109;BME280;59614;51.012;-1.648;2023-01-25T09:30:58;102609.59;;;0.61;100.00
71109;BME280;59614;51.012;-1.648;2023-01-25T09:33:28;102609.78;;;0.64;100.00
71109;BME280;59614;51.012;-1.648;2023-01-25T09:35:55;102606.91;;;0.59;100.00
71109;BME280;59614;51.012;-1.648;2023-01-25T09:38:21;102600.53;;;0.54;100.00
71109;BME280;59614;51.012;-1.648;2023-01-25T09:46:46;102586.19;;;0.91;100.00
71109;BME280;59614;51.012;-1.648;2023-01-25T09:55:12;102571.31;;;1.03;99.30
71109;BME280;59614;51.012;-1.648;2023-01-25T09:57:38;102583.34;;;0.86;99.40
71109;BME280;59614;51.012;-1.648;2023-01-25T10:02:56;102572.41;;;0.77;100.00
71109;BME280;59614;51.012;-1.648;2023-01-25T10:05:28;102566.09;;;1.03;100.00
71109;BME280;59614;51.012;-1.648;2023-01-25T10:08:07;102563.06;;;1.11;99.56
71109;BME280;59614;51.012;-1.648;2023-01-25T10:10:41;102554.56;;;0.98;99.49
71109;BME280;59614;51.012;-1.648;2023-01-25T10:13:11;102547.78;;;1.17;99.57
71109;BME280;59614;51.012;-1.648;2023-01-25T10:15:43;102554.28;;;1.08;99.67
71109;BME280;59614;51.012;-1.648;2023-01-25T10:26:00;102526.19;;;1.18;98.52
71109;BME280;59614;51.012;-1.648;2023-01-25T10:31:48;102523.81;;;1.06;98.76
71109;BME280;59614;51.012;-1.648;2023-01-25T10:34:44;102523.69;;;1.04;99.59
71109;BME280;59614;51.012;-1.648;2023-01-25T10:37:17;102526.06;;;1.31;100.00
71109;BME280;59614;51.012;-1.648;2023-01-25T10:40:14;102521.72;;;1.32;99.21
71109;BME280;59614;51.012;-1.648;2023-01-25T10:42:55;102515.47;;;0.82;100.00
71109;BME280;59614;51.012;-1.648;2023-01-25T10:45:24;102511.19;;;1.14;100.00
71109;BME280;59614;51.012;-1.648;2023-01-25T10:47:53;102499.13;;;1.31;100.00
71109;BME280;59614;51.012;-1.648;2023-01-25T10:53:23;102489.75;;;1.01;100.00
71109;BME280;59614;51.012;-1.648;2023-01-25T10:56:18;102487.72;;;1.12;100.00
71109;BME280;59614;51.012;-1.648;2023-01-25T10:58:47;102482.56;;;1.29;100.00
71109;BME280;59614;51.012;-1.648;2023-01-25T11:01:26;102481.78;;;1.63;100.00
71109;BME280;59614;51.012;-1.648;2023-01-25T11:03:53;102472.41;;;1.50;99.84
71109;BME280;59614;51.012;-1.648;2023-01-25T11:06:48;102468.22;;;1.68;100.00
71109;BME280;59614;51.012;-1.648;2023-01-25T11:12:19;102465.59;;;1.68;99.46
71109;BME280;59614;51.012;-1.648;2023-01-25T11:14:48;102476.34;;;1.91;99.56
71109;BME280;59614;51.012;-1.648;2023-01-25T11:17:23;102466.88;;;1.93;99.65
71109;BME280;59614;51.012;-1.648;2023-01-25T11:20:21;102459.56;;;2.03;99.87
71109;BME280;59614;51.012;-1.648;2023-01-25T11:22:52;102455.34;;;1.88;99.30
71109;BME280;59614;51.012;-1.648;2023-01-25T11:25:31;102451.22;;;2.10;98.61
71109;BME280;59614;51.012;-1.648;2023-01-25T11:30:44;102433.34;;;1.83;99.39
71109;BME280;59614;51.012;-1.648;2023-01-25T11:33:12;102424.25;;;1.91;99.18
71109;BME280;59614;51.012;-1.648;2023-01-25T11:55:27;102409.81;;;2.33;100.00
71109;BME280;59614;51.012;-1.648;2023-01-25T12:01:02;102400.34;;;2.35;98.38
71109;BME280;59614;51.012;-1.648;2023-01-25T12:06:21;102380.94;;;2.46;98.39
71109;BME280;59614;51.012;-1.648;2023-01-25T12:12:10;102379.84;;;2.60;98.10
71109;BME280;59614;51.012;-1.648;2023-01-25T12:14:53;102389.25;;;2.57;97.60
71109;BME280;59614;51.012;-1.648;2023-01-25T12:22:55;102396.41;;;2.79;97.84
71109;BME280;59614;51.012;-1.648;2023-01-25T12:28:10;102432.69;;;2.56;97.34
71109;BME280;59614;51.012;-1.648;2023-01-25T12:33:21;102415.78;;;2.30;100.00
71109;BME280;59614;51.012;-1.648;2023-01-25T12:36:13;102417.41;;;2.46;100.00
71109;BME280;59614;51.012;-1.648;2023-01-25T12:43:51;102415.03;;;2.51;99.82
71109;BME280;59614;51.012;-1.648;2023-01-25T12:46:32;102394.34;;;2.36;100.00
71109;BME280;59614;51.012;-1.648;2023-01-25T12:49:07;102393.34;;;2.34;100.00
71109;BME280;59614;51.012;-1.648;2023-01-25T12:51:40;102392.22;;;2.28;100.00
71109;BME280;59614;51.012;-1.648;2023-01-25T12:54:24;102389.81;;;2.15;100.00
71109;BME280;59614;51.012;-1.648;2023-01-25T12:56:57;102387.44;;;2.02;100.00
71109;BME280;59614;51.012;-1.648;2023-01-25T12:59:46;102385.22;;;2.27;100.00
71109;BME280;59614;51.012;-1.648;2023-01-25T13:02:33;102372.66;;;2.19;100.00
71109;BME280;59614;51.012;-1.648;2023-01-25T13:05:13;102367.38;;;2.35;100.00
71109;BME280;59614;51.012;-1.648;2023-01-25T13:10:52;102363.94;;;2.54;99.64
71109;BME280;59614;51.012;-1.648;2023-01-25T13:13:25;102370.25;;;2.59;99.67
71109;BME280;59614;51.012;-1.648;2023-01-25T13:15:52;102380.59;;;2.76;99.34
71109;BME280;59614;51.012;-1.648;2023-01-25T13:20:55;102379.19;;;2.65;99.49
71109;BME280;59614;51.012;-1.648;2023-01-25T13:23:35;102369.44;;;2.42;99.72
71109;BME280;59614;51.012;-1.648;2023-01-25T13:28:56;102363.34;;;2.42;100.00
71109;BME280;59614;51.012;-1.648;2023-01-25T13:34:09;102367.31;;;2.52;100.00
71109;BME280;59614;51.012;-1.648;2023-01-25T13:36:44;102365.84;;;2.76;100.00
71109;BME280;59614;51.012;-1.648;2023-01-25T13:42:16;102355.06;;;2.69;100.00
71109;BME280;59614;51.012;-1.648;2023-01-25T13:44:44;102351.69;;;2.71;99.61
71109;BME280;59614;51.012;-1.648;2023-01-25T13:47:12;102349.56;;;2.82;99.69
71109;BME280;59614;51.012;-1.648;2023-01-25T13:49:57;102344.13;;;2.58;100.00
71109;BME280;59614;51.012;-1.648;2023-01-25T13:52:26;102313.50;;;2.54;100.00
71109;BME280;59614;51.012;-1.648;2023-01-25T13:54:56;102312.25;;;2.83;100.00
71109;BME280;59614;51.012;-1.648;2023-01-25T13:57:27;102325.44;;;2.86;99.59
71109;BME280;59614;51.012;-1.648;2023-01-25T14:00:12;102312.28;;;3.03;100.00
71109;BME280;59614;51.012;-1.648;2023-01-25T14:02:41;102295.59;;;3.19;98.60
71109;BME280;59614;51.012;-1.648;2023-01-25T14:05:19;102290.00;;;3.31;97.70
71109;BME280;59614;51.012;-1.648;2023-01-25T14:07:46;102291.91;;;3.54;98.08
71109;BME280;59614;51.012;-1.648;2023-01-25T14:10:18;102274.81;;;3.63;97.00
71109;BME280;59614;51.012;-1.648;2023-01-25T14:12:48;102270.72;;;3.27;96.89
71109;BME280;59614;51.012;-1.648;2023-01-25T14:20:36;102252.16;;;2.80;100.00
71109;BME280;59614;51.012;-1.648;2023-01-25T14:23:01;102246.34;;;3.07;100.00
71109;BME280;59614;51.012;-1.648;2023-01-25T14:25:28;102228.81;;;3.03;100.00
71109;BME280;59614;51.012;-1.648;2023-01-25T14:27:59;102238.44;;;3.25;100.00
71109;BME280;59614;51.012;-1.648;2023-01-25T14:30:30;102228.19;;;3.30;99.88
71109;BME280;59614;51.012;-1.648;2023-01-25T14:33:18;102225.59;;;3.30;98.38